sensor_id;sensor_type;location;lat;lon;timestamp;P1;durP1;ratioP1;P2;durP2;ratioP2
31774;SDS011;66189;49.000;11.640;2023-04-07T00:00:53;17.63;;;8.70;;
31774;SDS011;66189;49.000;11.640;2023-04-07T00:02:53;18.92;;;10.32;;
31774;SDS011;66189;49.000;11.640;2023-04-07T00:04:54;16.80;;;9.30;;
31774;SDS011;66189;49.000;11.640;2023-04-07T00:06:56;16.48;;;9.27;;
31774;SDS011;66189;49.000;11.640;2023-04-07T00:08:56;19.92;;;10.18;;
31774;SDS011;66189;49.000;11.640;2023-04-07T00:12:57;23.83;;;10.10;;
31774;SDS011;66189;49.000;11.640;2023-04-07T00:14:57;18.73;;;9.75;;
31774;SDS011;66189;49.000;11.640;2023-04-07T00:16:58;15.98;;;9.65;;
31774;SDS011;66189;49.000;11.640;2023-04-07T00:18:58;16.90;;;9.57;;
31774;SDS011;66189;49.000;11.640;2023-04-07T00:22:59;18.03;;;10.23;;
31774;SDS011;66189;49.000;11.640;2023-04-07T00:24:59;15.15;;;9.05;;
31774;SDS011;66189;49.000;11.640;2023-04-07T00:29:00;16.67;;;9.50;;
31774;SDS011;66189;49.000;11.640;2023-04-07T00:31:01;18.63;;;10.10;;
31774;SDS011;66189;49.000;11.640;2023-04-07T00:33:01;18.63;;;10.00;;
31774;SDS011;66189;49.000;11.640;2023-04-07T00:35:01;16.23;;;9.70;;
31774;SDS011;66189;49.000;11.640;2023-04-07T00:37:02;19.10;;;10.10;;
31774;SDS011;66189;49.000;11.640;2023-04-07T00:39:02;16.90;;;9.70;;
31774;SDS011;66189;49.000;11.640;2023-04-07T00:41:02;19.73;;;10.10;;
31774;SDS011;66189;49.000;11.640;2023-04-07T00:43:03;16.77;;;8.85;;
31774;SDS011;66189;49.000;11.640;2023-04-07T00:45:04;17.70;;;9.63;;
31774;SDS011;66189;49.000;11.640;2023-04-07T00:47:05;18.38;;;9.32;;
31774;SDS011;66189;49.000;11.640;2023-04-07T00:49:06;18.48;;;10.45;;
31774;SDS011;66189;49.000;11.640;2023-04-07T00:51:06;17.92;;;10.50;;
31774;SDS011;66189;49.000;11.640;2023-04-07T00:53:07;15.57;;;10.38;;
31774;SDS011;66189;49.000;11.640;2023-04-07T00:55:07;16.38;;;10.07;;
31774;SDS011;66189;49.000;11.640;2023-04-07T00:57:08;16.92;;;10.35;;
31774;SDS011;66189;49.000;11.640;2023-04-07T00:59:09;17.13;;;9.25;;
31774;SDS011;66189;49.000;11.640;2023-04-07T01:01:11;17.17;;;9.52;;
31774;SDS011;66189;49.000;11.640;2023-04-07T01:03:17;18.10;;;9.75;;
31774;SDS011;66189;49.000;11.640;2023-04-07T01:07:50;18.08;;;9.90;;
31774;SDS011;66189;49.000;11.640;2023-04-07T01:10:00;18.42;;;9.68;;
31774;SDS011;66189;49.000;11.640;2023-04-07T01:12:23;18.27;;;9.77;;
31774;SDS011;66189;49.000;11.640;2023-04-07T01:14:31;16.45;;;9.60;;
31774;SDS011;66189;49.000;11.640;2023-04-07T01:16:51;17.88;;;10.00;;
31774;SDS011;66189;49.000;11.640;2023-04-07T01:19:07;16.52;;;9.43;;
31774;SDS011;66189;49.000;11.640;2023-04-07T01:21:25;19.40;;;9.95;;
31774;SDS011;66189;49.000;11.640;2023-04-07T01:23:48;15.63;;;9.80;;
31774;SDS011;66189;49.000;11.640;2023-04-07T01:31:11;17.48;;;10.05;;
31774;SDS011;66189;49.000;11.640;2023-04-07T01:33:14;19.63;;;10.57;;
31774;SDS011;66189;49.000;11.640;2023-04-07T01:35:15;17.58;;;9.73;;
31774;SDS011;66189;49.000;11.640;2023-04-07T01:37:17;17.33;;;9.65;;
31774;SDS011;66189;49.000;11.640;2023-04-07T01:39:18;17.67;;;9.57;;
31774;SDS011;66189;49.000;11.640;2023-04-07T01:41:20;14.57;;;9.32;;
31774;SDS011;66189;49.000;11.640;2023-04-07T01:43:22;16.27;;;9.90;;
31774;SDS011;66189;49.000;11.640;2023-04-07T01:45:24;20.27;;;10.90;;
31774;SDS011;66189;49.000;11.640;2023-04-07T01:47:29;27.45;;;10.23;;
31774;SDS011;66189;49.000;11.640;2023-04-07T01:49:31;18.95;;;10.18;;
31774;SDS011;66189;49.000;11.640;2023-04-07T01:51:34;17.83;;;10.40;;
31774;SDS011;66189;49.000;11.640;2023-04-07T01:53:35;17.08;;;10.20;;
31774;SDS011;66189;49.000;11.640;2023-04-07T01:55:36;17.42;;;10.50;;
31774;SDS011;66189;49.000;11.640;2023-04-07T01:57:42;19.00;;;11.02;;
31774;SDS011;66189;49.000;11.640;2023-04-07T01:59:48;17.98;;;10.38;;
31774;SDS011;66189;49.000;11.640;2023-04-07T02:01:51;18.63;;;10.85;;
31774;SDS011;66189;49.000;11.640;2023-04-07T02:03:55;17.38;;;10.63;;
31774;SDS011;66189;49.000;11.640;2023-04-07T02:06:05;21.35;;;11.52;;
31774;SDS011;66189;49.000;11.640;2023-04-07T02:08:07;17.63;;;9.95;;
31774;SDS011;66189;49.000;11.640;2023-04-07T02:10:10;20.85;;;11.35;;
31774;SDS011;66189;49.000;11.640;2023-04-07T02:12:14;19.27;;;11.32;;
31774;SDS011;66189;49.000;11.640;2023-04-07T02:14:26;20.63;;;10.80;;
31774;SDS011;66189;49.000;11.640;2023-04-07T02:16:36;22.83;;;12.25;;
31774;SDS011;66189;49.000;11.640;2023-04-07T02:18:38;26.92;;;14.85;;
31774;SDS011;66189;49.000;11.640;2023-04-07T02:20:40;19.27;;;12.45;;
31774;SDS011;66189;49.000;11.640;2023-04-07T02:22:44;20.58;;;11.60;;
31774;SDS011;66189;49.000;11.640;2023-04-07T02:24:45;22.20;;;11.88;;
31774;SDS011;66189;49.000;11.640;2023-04-07T02:26:46;22.67;;;12.10;;
31774;SDS011;66189;49.000;11.640;2023-04-07T02:28:46;18.55;;;11.60;;
31774;SDS011;66189;49.000;11.640;2023-04-07T02:30:47;22.15;;;11.90;;
31774;SDS011;66189;49.000;11.640;2023-04-07T02:32:47;20.30;;;11.45;;
31774;SDS011;66189;49.000;11.640;2023-04-07T02:34:48;21.90;;;11.60;;
31774;SDS011;66189;49.000;11.640;2023-04-07T02:36:48;21.25;;;12.50;;
31774;SDS011;66189;49.000;11.640;2023-04-07T02:38:48;23.13;;;12.35;;
31774;SDS011;66189;49.000;11.640;2023-04-07T02:40:49;23.17;;;11.75;;
31774;SDS011;66189;49.000;11.640;2023-04-07T02:42:49;22.92;;;12.23;;
31774;SDS011;66189;49.000;11.640;2023-04-07T02:44:50;18.50;;;10.93;;
31774;SDS011;66189;49.000;11.640;2023-04-07T02:46:50;21.30;;;12.38;;
31774;SDS011;66189;49.000;11.640;2023-04-07T02:48:51;20.05;;;10.75;;
31774;SDS011;66189;49.000;11.640;2023-04-07T02:50:51;19.83;;;11.38;;
31774;SDS011;66189;49.000;11.640;2023-04-07T02:52:51;18.15;;;10.70;;
31774;SDS011;66189;49.000;11.640;2023-04-07T02:54:52;21.75;;;12.40;;
31774;SDS011;66189;49.000;11.640;2023-04-07T02:56:56;23.00;;;11.10;;
31774;SDS011;66189;49.000;11.640;2023-04-07T02:58:58;21.15;;;13.20;;
31774;SDS011;66189;49.000;11.640;2023-04-07T03:00:59;20.75;;;11.73;;
31774;SDS011;66189;49.000;11.640;2023-04-07T03:03:03;25.08;;;11.27;;
31774;SDS011;66189;49.000;11.640;2023-04-07T03:05:07;19.27;;;10.52;;
31774;SDS011;66189;49.000;11.640;2023-04-07T03:07:08;18.30;;;11.63;;
31774;SDS011;66189;49.000;11.640;2023-04-07T03:09:08;19.95;;;11.18;;
31774;SDS011;66189;49.000;11.640;2023-04-07T03:11:09;17.40;;;9.18;;
31774;SDS011;66189;49.000;11.640;2023-04-07T03:13:09;20.60;;;9.40;;
31774;SDS011;66189;49.000;11.640;2023-04-07T03:15:11;16.33;;;9.75;;
31774;SDS011;66189;49.000;11.640;2023-04-07T03:17:15;17.13;;;10.38;;
31774;SDS011;66189;49.000;11.640;2023-04-07T03:19:17;16.70;;;10.18;;
31774;SDS011;66189;49.000;11.640;2023-04-07T03:21:21;18.10;;;9.80;;
31774;SDS011;66189;49.000;11.640;2023-04-07T03:23:21;18.55;;;10.15;;
31774;SDS011;66189;49.000;11.640;2023-04-07T03:25:24;15.90;;;9.43;;
31774;SDS011;66189;49.000;11.640;2023-04-07T03:27:25;16.65;;;9.35;;
31774;SDS011;66189;49.000;11.640;2023-04-07T03:29:26;14.77;;;8.77;;
31774;SDS011;66189;49.000;11.640;2023-04-07T03:31:26;15.60;;;9.80;;
31774;SDS011;66189;49.000;11.640;2023-04-07T03:33:27;16.75;;;10.20;;
31774;SDS011;66189;49.000;11.640;2023-04-07T03:35:28;21.40;;;10.00;;
31774;SDS011;66189;49.000;11.640;2023-04-07T03:37:29;20.65;;;10.23;;
31774;SDS011;66189;49.000;11.640;2023-04-07T03:39:29;14.43;;;9.50;;
31774;SDS011;66189;49.000;11.640;2023-04-07T03:41:33;16.88;;;9.65;;
31774;SDS011;66189;49.000;11.640;2023-04-07T03:43:33;18.60;;;10.38;;
31774;SDS011;66189;49.000;11.640;2023-04-07T03:45:35;22.98;;;9.63;;
31774;SDS011;66189;49.000;11.640;2023-04-07T03:47:35;15.48;;;8.93;;
31774;SDS011;66189;49.000;11.640;2023-04-07T03:49:38;15.48;;;9.60;;
31774;SDS011;66189;49.000;11.640;2023-04-07T03:51:39;19.15;;;9.48;;
31774;SDS011;66189;49.000;11.640;2023-04-07T03:53:46;13.70;;;9.32;;
31774;SDS011;66189;49.000;11.640;2023-04-07T03:55:59;13.88;;;9.23;;
31774;SDS011;66189;49.000;11.640;2023-04-07T03:58:14;14.48;;;9.27;;
31774;SDS011;66189;49.000;11.640;2023-04-07T04:00:16;18.65;;;9.48;;
31774;SDS011;66189;49.000;11.640;2023-04-07T04:02:17;18.92;;;10.20;;
31774;SDS011;66189;49.000;11.640;2023-04-07T04:04:20;16.73;;;9.10;;
31774;SDS011;66189;49.000;11.640;2023-04-07T04:06:21;15.93;;;9.73;;
31774;SDS011;66189;49.000;11.640;2023-04-07T04:08:22;17.33;;;10.55;;
31774;SDS011;66189;49.000;11.640;2023-04-07T04:10:23;19.17;;;10.32;;
31774;SDS011;66189;49.000;11.640;2023-04-07T04:12:26;19.02;;;10.88;;
31774;SDS011;66189;49.000;11.640;2023-04-07T04:14:38;18.08;;;11.45;;
31774;SDS011;66189;49.000;11.640;2023-04-07T04:16:41;21.08;;;11.05;;
31774;SDS011;66189;49.000;11.640;2023-04-07T04:18:55;18.38;;;10.85;;
31774;SDS011;66189;49.000;11.640;2023-04-07T04:20:56;19.98;;;10.63;;
31774;SDS011;66189;49.000;11.640;2023-04-07T04:22:57;18.52;;;10.50;;
31774;SDS011;66189;49.000;11.640;2023-04-07T04:24:57;17.05;;;11.10;;
31774;SDS011;66189;49.000;11.640;2023-04-07T04:27:00;19.02;;;11.27;;
31774;SDS011;66189;49.000;11.640;2023-04-07T04:29:01;19.35;;;11.98;;
31774;SDS011;66189;49.000;11.640;2023-04-07T04:31:03;22.42;;;12.43;;
31774;SDS011;66189;49.000;11.640;2023-04-07T04:33:07;21.67;;;12.20;;
31774;SDS011;66189;49.000;11.640;2023-04-07T04:35:17;25.27;;;11.98;;
31774;SDS011;66189;49.000;11.640;2023-04-07T04:37:31;19.65;;;11.82;;
31774;SDS011;66189;49.000;11.640;2023-04-07T04:39:33;21.67;;;11.75;;
31774;SDS011;66189;49.000;11.640;2023-04-07T04:41:34;19.52;;;11.90;;
31774;SDS011;66189;49.000;11.640;2023-04-07T04:43:36;21.33;;;12.27;;
31774;SDS011;66189;49.000;11.640;2023-04-07T04:45:38;23.02;;;12.27;;
31774;SDS011;66189;49.000;11.640;2023-04-07T04:47:40;19.38;;;10.98;;
31774;SDS011;66189;49.000;11.640;2023-04-07T04:49:44;21.45;;;11.88;;
31774;SDS011;66189;49.000;11.640;2023-04-07T04:51:45;20.33;;;11.15;;
31774;SDS011;66189;49.000;11.640;2023-04-07T04:53:49;20.80;;;11.75;;
31774;SDS011;66189;49.000;11.640;2023-04-07T04:55:50;21.77;;;11.85;;
31774;SDS011;66189;49.000;11.640;2023-04-07T04:57:55;21.67;;;12.15;;
31774;SDS011;66189;49.000;11.640;2023-04-07T05:00:06;19.75;;;11.50;;
31774;SDS011;66189;49.000;11.640;2023-04-07T05:02:07;20.35;;;10.35;;
31774;SDS011;66189;49.000;11.640;2023-04-07T05:04:08;23.20;;;11.40;;
31774;SDS011;66189;49.000;11.640;2023-04-07T05:06:11;17.40;;;11.00;;
31774;SDS011;66189;49.000;11.640;2023-04-07T05:08:11;21.23;;;11.00;;
31774;SDS011;66189;49.000;11.640;2023-04-07T05:10:13;25.50;;;14.70;;
31774;SDS011;66189;49.000;11.640;2023-04-07T05:12:20;23.38;;;13.95;;
31774;SDS011;66189;49.000;11.640;2023-04-07T05:14:27;25.40;;;13.52;;
31774;SDS011;66189;49.000;11.640;2023-04-07T05:16:35;26.10;;;15.45;;
31774;SDS011;66189;49.000;11.640;2023-04-07T05:18:37;26.27;;;15.13;;
31774;SDS011;66189;49.000;11.640;2023-04-07T05:20:39;28.02;;;15.50;;
31774;SDS011;66189;49.000;11.640;2023-04-07T05:22:40;30.75;;;15.10;;
31774;SDS011;66189;49.000;11.640;2023-04-07T05:24:45;25.25;;;14.75;;
31774;SDS011;66189;49.000;11.640;2023-04-07T05:26:45;25.92;;;14.55;;
31774;SDS011;66189;49.000;11.640;2023-04-07T05:28:46;23.33;;;13.02;;
31774;SDS011;66189;49.000;11.640;2023-04-07T05:30:51;21.92;;;13.18;;
31774;SDS011;66189;49.000;11.640;2023-04-07T05:32:53;25.25;;;12.93;;
31774;SDS011;66189;49.000;11.640;2023-04-07T05:35:03;26.65;;;14.23;;
31774;SDS011;66189;49.000;11.640;2023-04-07T05:37:08;23.55;;;13.63;;
31774;SDS011;66189;49.000;11.640;2023-04-07T05:39:08;30.70;;;14.18;;
31774;SDS011;66189;49.000;11.640;2023-04-07T05:41:09;26.10;;;13.40;;
31774;SDS011;66189;49.000;11.640;2023-04-07T05:43:12;21.90;;;12.68;;
31774;SDS011;66189;49.000;11.640;2023-04-07T05:45:12;23.52;;;12.18;;
31774;SDS011;66189;49.000;11.640;2023-04-07T05:47:16;25.52;;;12.90;;
31774;SDS011;66189;49.000;11.640;2023-04-07T05:49:16;21.25;;;12.07;;
31774;SDS011;66189;49.000;11.640;2023-04-07T05:51:17;22.92;;;13.77;;
31774;SDS011;66189;49.000;11.640;2023-04-07T05:53:18;25.35;;;12.40;;
31774;SDS011;66189;49.000;11.640;2023-04-07T05:55:19;22.77;;;12.35;;
31774;SDS011;66189;49.000;11.640;2023-04-07T05:57:20;24.08;;;13.13;;
31774;SDS011;66189;49.000;11.640;2023-04-07T05:59:22;25.65;;;13.18;;
31774;SDS011;66189;49.000;11.640;2023-04-07T06:01:24;21.73;;;12.45;;
31774;SDS011;66189;49.000;11.640;2023-04-07T06:03:25;22.42;;;12.13;;
31774;SDS011;66189;49.000;11.640;2023-04-07T06:05:32;22.20;;;11.50;;
31774;SDS011;66189;49.000;11.640;2023-04-07T06:07:34;20.20;;;11.10;;
31774;SDS011;66189;49.000;11.640;2023-04-07T06:09:35;23.05;;;11.73;;
31774;SDS011;66189;49.000;11.640;2023-04-07T06:11:36;24.05;;;11.82;;
31774;SDS011;66189;49.000;11.640;2023-04-07T06:13:36;22.05;;;11.75;;
31774;SDS011;66189;49.000;11.640;2023-04-07T06:15:37;20.98;;;11.30;;
31774;SDS011;66189;49.000;11.640;2023-04-07T06:17:37;18.13;;;10.23;;
31774;SDS011;66189;49.000;11.640;2023-04-07T06:19:38;18.52;;;10.75;;
31774;SDS011;66189;49.000;11.640;2023-04-07T06:21:38;18.33;;;10.57;;
31774;SDS011;66189;49.000;11.640;2023-04-07T06:23:39;17.33;;;10.70;;
31774;SDS011;66189;49.000;11.640;2023-04-07T06:25:40;22.15;;;12.07;;
31774;SDS011;66189;49.000;11.640;2023-04-07T06:27:40;17.33;;;10.80;;
31774;SDS011;66189;49.000;11.640;2023-04-07T06:29:41;21.75;;;11.32;;
31774;SDS011;66189;49.000;11.640;2023-04-07T06:31:41;16.08;;;9.32;;
31774;SDS011;66189;49.000;11.640;2023-04-07T06:35:42;16.93;;;10.13;;
31774;SDS011;66189;49.000;11.640;2023-04-07T06:37:43;16.55;;;9.57;;
31774;SDS011;66189;49.000;11.640;2023-04-07T06:39:43;21.85;;;11.25;;
31774;SDS011;66189;49.000;11.640;2023-04-07T06:41:44;17.55;;;9.93;;
31774;SDS011;66189;49.000;11.640;2023-04-07T06:43:46;18.13;;;10.27;;
31774;SDS011;66189;49.000;11.640;2023-04-07T06:45:48;17.98;;;11.27;;
31774;SDS011;66189;49.000;11.640;2023-04-07T06:47:49;17.05;;;10.07;;
31774;SDS011;66189;49.000;11.640;2023-04-07T06:51:50;18.50;;;11.10;;
31774;SDS011;66189;49.000;11.640;2023-04-07T06:53:50;19.38;;;10.75;;
31774;SDS011;66189;49.000;11.640;2023-04-07T06:55:51;18.00;;;10.73;;
31774;SDS011;66189;49.000;11.640;2023-04-07T06:57:51;17.45;;;10.13;;
31774;SDS011;66189;49.000;11.640;2023-04-07T06:59:51;17.23;;;10.45;;
31774;SDS011;66189;49.000;11.640;2023-04-07T07:01:52;15.25;;;9.75;;
31774;SDS011;66189;49.000;11.640;2023-04-07T07:05:53;18.57;;;10.27;;
31774;SDS011;66189;49.000;11.640;2023-04-07T07:07:55;20.58;;;10.15;;
31774;SDS011;66189;49.000;11.640;2023-04-07T07:09:55;17.65;;;10.85;;
31774;SDS011;66189;49.000;11.640;2023-04-07T07:11:56;18.27;;;10.73;;
31774;SDS011;66189;49.000;11.640;2023-04-07T07:13:56;18.70;;;9.95;;
31774;SDS011;66189;49.000;11.640;2023-04-07T07:17:57;14.80;;;9.70;;
31774;SDS011;66189;49.000;11.640;2023-04-07T07:21:58;21.00;;;11.20;;
31774;SDS011;66189;49.000;11.640;2023-04-07T07:23:58;15.38;;;9.88;;
31774;SDS011;66189;49.000;11.640;2023-04-07T07:27:59;20.77;;;10.67;;
31774;SDS011;66189;49.000;11.640;2023-04-07T07:32:00;17.93;;;10.03;;
31774;SDS011;66189;49.000;11.640;2023-04-07T07:36:01;15.70;;;10.10;;
31774;SDS011;66189;49.000;11.640;2023-04-07T07:38:01;16.42;;;10.23;;
31774;SDS011;66189;49.000;11.640;2023-04-07T07:40:04;17.20;;;10.02;;
31774;SDS011;66189;49.000;11.640;2023-04-07T07:42:05;17.25;;;10.13;;
31774;SDS011;66189;49.000;11.640;2023-04-07T07:44:05;17.45;;;10.55;;
31774;SDS011;66189;49.000;11.640;2023-04-07T07:48:06;16.50;;;10.17;;
31774;SDS011;66189;49.000;11.640;2023-04-07T07:50:06;18.73;;;11.38;;
31774;SDS011;66189;49.000;11.640;2023-04-07T07:52:07;19.70;;;10.35;;
31774;SDS011;66189;49.000;11.640;2023-04-07T07:54:08;14.45;;;10.23;;
31774;SDS011;66189;49.000;11.640;2023-04-07T07:58:09;18.07;;;10.50;;
31774;SDS011;66189;49.000;11.640;2023-04-07T08:00:10;20.23;;;11.23;;
31774;SDS011;66189;49.000;11.640;2023-04-07T08:02:14;18.98;;;10.75;;
31774;SDS011;66189;49.000;11.640;2023-04-07T08:04:14;17.80;;;10.20;;
31774;SDS011;66189;49.000;11.640;2023-04-07T08:08:16;14.00;;;9.27;;
31774;SDS011;66189;49.000;11.640;2023-04-07T08:10:17;15.18;;;9.13;;
31774;SDS011;66189;49.000;11.640;2023-04-07T08:12:20;17.00;;;9.32;;
31774;SDS011;66189;49.000;11.640;2023-04-07T08:14:21;13.82;;;9.13;;
31774;SDS011;66189;49.000;11.640;2023-04-07T08:16:21;18.98;;;10.73;;
31774;SDS011;66189;49.000;11.640;2023-04-07T08:20:25;16.23;;;8.80;;
31774;SDS011;66189;49.000;11.640;2023-04-07T08:22:26;14.77;;;8.80;;
31774;SDS011;66189;49.000;11.640;2023-04-07T08:24:27;13.82;;;8.80;;
31774;SDS011;66189;49.000;11.640;2023-04-07T08:26:28;14.85;;;9.20;;
31774;SDS011;66189;49.000;11.640;2023-04-07T08:28:28;15.70;;;9.77;;
31774;SDS011;66189;49.000;11.640;2023-04-07T08:32:33;15.60;;;8.57;;
31774;SDS011;66189;49.000;11.640;2023-04-07T08:34:44;13.75;;;9.43;;
31774;SDS011;66189;49.000;11.640;2023-04-07T08:36:44;16.42;;;8.40;;
31774;SDS011;66189;49.000;11.640;2023-04-07T08:38:44;13.35;;;7.97;;
31774;SDS011;66189;49.000;11.640;2023-04-07T08:40:45;15.02;;;8.95;;
31774;SDS011;66189;49.000;11.640;2023-04-07T08:42:47;13.40;;;8.88;;
31774;SDS011;66189;49.000;11.640;2023-04-07T08:44:48;16.77;;;8.60;;
31774;SDS011;66189;49.000;11.640;2023-04-07T08:46:50;13.80;;;8.80;;
31774;SDS011;66189;49.000;11.640;2023-04-07T08:48:56;18.27;;;9.50;;
31774;SDS011;66189;49.000;11.640;2023-04-07T08:50:57;13.95;;;8.68;;
31774;SDS011;66189;49.000;11.640;2023-04-07T08:52:59;18.10;;;8.90;;
31774;SDS011;66189;49.000;11.640;2023-04-07T08:55:06;14.70;;;7.80;;
31774;SDS011;66189;49.000;11.640;2023-04-07T08:57:07;11.27;;;7.47;;
31774;SDS011;66189;49.000;11.640;2023-04-07T08:59:09;10.25;;;7.20;;
31774;SDS011;66189;49.000;11.640;2023-04-07T09:01:11;9.82;;;7.07;;
31774;SDS011;66189;49.000;11.640;2023-04-07T09:03:12;8.98;;;6.65;;
31774;SDS011;66189;49.000;11.640;2023-04-07T09:05:13;13.75;;;7.47;;
31774;SDS011;66189;49.000;11.640;2023-04-07T09:07:13;12.38;;;7.15;;
31774;SDS011;66189;49.000;11.640;2023-04-07T09:09:14;12.30;;;7.47;;
31774;SDS011;66189;49.000;11.640;2023-04-07T09:13:15;10.17;;;6.40;;
31774;SDS011;66189;49.000;11.640;2023-04-07T09:17:16;11.13;;;6.60;;
31774;SDS011;66189;49.000;11.640;2023-04-07T09:21:17;12.50;;;7.40;;
31774;SDS011;66189;49.000;11.640;2023-04-07T09:25:38;17.10;;;12.57;;
31774;SDS011;66189;49.000;11.640;2023-04-07T09:27:38;13.63;;;7.60;;
31774;SDS011;66189;49.000;11.640;2023-04-07T09:29:39;13.25;;;7.07;;
31774;SDS011;66189;49.000;11.640;2023-04-07T09:31:47;10.43;;;6.68;;
31774;SDS011;66189;49.000;11.640;2023-04-07T09:33:53;12.57;;;8.15;;
31774;SDS011;66189;49.000;11.640;2023-04-07T09:35:54;9.98;;;6.53;;
31774;SDS011;66189;49.000;11.640;2023-04-07T09:38:06;10.40;;;7.32;;
31774;SDS011;66189;49.000;11.640;2023-04-07T09:40:07;11.13;;;7.57;;
31774;SDS011;66189;49.000;11.640;2023-04-07T09:42:08;10.68;;;6.90;;
31774;SDS011;66189;49.000;11.640;2023-04-07T09:44:09;8.93;;;6.00;;
31774;SDS011;66189;49.000;11.640;2023-04-07T09:48:19;10.23;;;7.17;;
31774;SDS011;66189;49.000;11.640;2023-04-07T09:50:30;10.38;;;6.55;;
31774;SDS011;66189;49.000;11.640;2023-04-07T09:52:51;9.93;;;6.85;;
31774;SDS011;66189;49.000;11.640;2023-04-07T09:54:51;12.02;;;6.80;;
31774;SDS011;66189;49.000;11.640;2023-04-07T09:58:53;9.88;;;6.85;;
31774;SDS011;66189;49.000;11.640;2023-04-07T10:00:54;11.93;;;6.90;;
31774;SDS011;66189;49.000;11.640;2023-04-07T10:02:55;13.95;;;7.00;;
31774;SDS011;66189;49.000;11.640;2023-04-07T10:04:57;14.85;;;8.20;;
31774;SDS011;66189;49.000;11.640;2023-04-07T10:06:58;10.55;;;7.30;;
31774;SDS011;66189;49.000;11.640;2023-04-07T10:09:00;11.45;;;7.00;;
31774;SDS011;66189;49.000;11.640;2023-04-07T10:11:01;11.05;;;7.57;;
31774;SDS011;66189;49.000;11.640;2023-04-07T10:13:03;13.18;;;7.95;;
31774;SDS011;66189;49.000;11.640;2023-04-07T10:15:05;12.18;;;7.50;;
31774;SDS011;66189;49.000;11.640;2023-04-07T10:17:06;11.45;;;7.70;;
31774;SDS011;66189;49.000;11.640;2023-04-07T10:19:07;11.88;;;7.63;;
31774;SDS011;66189;49.000;11.640;2023-04-07T10:21:08;12.48;;;8.15;;
31774;SDS011;66189;49.000;11.640;2023-04-07T10:23:18;12.52;;;7.20;;
31774;SDS011;66189;49.000;11.640;2023-04-07T10:25:21;10.13;;;6.60;;
31774;SDS011;66189;49.000;11.640;2023-04-07T10:29:55;12.10;;;7.43;;
31774;SDS011;66189;49.000;11.640;2023-04-07T10:31:58;10.43;;;6.72;;
31774;SDS011;66189;49.000;11.640;2023-04-07T10:33:59;8.77;;;6.50;;
31774;SDS011;66189;49.000;11.640;2023-04-07T10:36:02;9.93;;;6.93;;
31774;SDS011;66189;49.000;11.640;2023-04-07T10:48:56;9.60;;;6.53;;
31774;SDS011;66189;49.000;11.640;2023-04-07T10:51:12;9.18;;;6.50;;
31774;SDS011;66189;49.000;11.640;2023-04-07T10:53:14;13.18;;;6.00;;
31774;SDS011;66189;49.000;11.640;2023-04-07T10:55:27;10.65;;;5.80;;
31774;SDS011;66189;49.000;11.640;2023-04-07T10:57:28;12.02;;;7.10;;
31774;SDS011;66189;49.000;11.640;2023-04-07T10:59:29;9.52;;;5.93;;
31774;SDS011;66189;49.000;11.640;2023-04-07T11:03:31;10.93;;;5.93;;
31774;SDS011;66189;49.000;11.640;2023-04-07T11:05:33;8.68;;;5.72;;
31774;SDS011;66189;49.000;11.640;2023-04-07T11:07:50;9.32;;;6.43;;
31774;SDS011;66189;49.000;11.640;2023-04-07T11:10:12;8.48;;;5.35;;
31774;SDS011;66189;49.000;11.640;2023-04-07T11:12:21;10.32;;;6.05;;
31774;SDS011;66189;49.000;11.640;2023-04-07T11:14:26;9.50;;;5.30;;
31774;SDS011;66189;49.000;11.640;2023-04-07T11:16:34;6.75;;;4.90;;
31774;SDS011;66189;49.000;11.640;2023-04-07T11:18:37;10.05;;;6.20;;
31774;SDS011;66189;49.000;11.640;2023-04-07T11:20:45;9.80;;;5.78;;
31774;SDS011;66189;49.000;11.640;2023-04-07T11:22:58;7.93;;;5.45;;
31774;SDS011;66189;49.000;11.640;2023-04-07T11:24:59;9.25;;;6.65;;
31774;SDS011;66189;49.000;11.640;2023-04-07T11:27:00;11.80;;;6.68;;
31774;SDS011;66189;49.000;11.640;2023-04-07T11:29:00;8.80;;;6.10;;
31774;SDS011;66189;49.000;11.640;2023-04-07T11:33:01;8.57;;;6.03;;
31774;SDS011;66189;49.000;11.640;2023-04-07T11:37:22;9.60;;;6.05;;
31774;SDS011;66189;49.000;11.640;2023-04-07T11:39:24;9.35;;;5.45;;
31774;SDS011;66189;49.000;11.640;2023-04-07T11:41:31;11.73;;;6.10;;
31774;SDS011;66189;49.000;11.640;2023-04-07T11:43:32;10.15;;;5.95;;
31774;SDS011;66189;49.000;11.640;2023-04-07T11:45:32;8.68;;;5.75;;
31774;SDS011;66189;49.000;11.640;2023-04-07T11:47:37;10.13;;;6.32;;
31774;SDS011;66189;49.000;11.640;2023-04-07T11:49:44;8.75;;;6.35;;
31774;SDS011;66189;49.000;11.640;2023-04-07T11:51:46;10.00;;;6.47;;
31774;SDS011;66189;49.000;11.640;2023-04-07T11:53:46;9.85;;;7.50;;
31774;SDS011;66189;49.000;11.640;2023-04-07T11:55:47;11.90;;;7.38;;
31774;SDS011;66189;49.000;11.640;2023-04-07T11:57:47;10.65;;;6.25;;
31774;SDS011;66189;49.000;11.640;2023-04-07T11:59:48;9.15;;;6.18;;
31774;SDS011;66189;49.000;11.640;2023-04-07T12:01:49;9.80;;;6.65;;
31774;SDS011;66189;49.000;11.640;2023-04-07T12:04:00;8.27;;;5.95;;
31774;SDS011;66189;49.000;11.640;2023-04-07T12:06:03;9.98;;;6.93;;
31774;SDS011;66189;49.000;11.640;2023-04-07T12:08:03;8.98;;;6.00;;
31774;SDS011;66189;49.000;11.640;2023-04-07T12:10:17;8.75;;;6.53;;
31774;SDS011;66189;49.000;11.640;2023-04-07T12:12:24;11.55;;;6.93;;
31774;SDS011;66189;49.000;11.640;2023-04-07T12:14:26;8.20;;;5.70;;
31774;SDS011;66189;49.000;11.640;2023-04-07T12:16:26;10.63;;;6.45;;
31774;SDS011;66189;49.000;11.640;2023-04-07T12:20:27;9.00;;;6.37;;
31774;SDS011;66189;49.000;11.640;2023-04-07T12:24:28;11.00;;;5.80;;
31774;SDS011;66189;49.000;11.640;2023-04-07T12:26:31;7.40;;;5.95;;
31774;SDS011;66189;49.000;11.640;2023-04-07T12:28:31;9.18;;;5.43;;
31774;SDS011;66189;49.000;11.640;2023-04-07T12:32:32;7.97;;;5.97;;
31774;SDS011;66189;49.000;11.640;2023-04-07T12:34:32;10.18;;;6.38;;
31774;SDS011;66189;49.000;11.640;2023-04-07T12:36:36;7.57;;;5.68;;
31774;SDS011;66189;49.000;11.640;2023-04-07T12:38:36;6.88;;;5.55;;
31774;SDS011;66189;49.000;11.640;2023-04-07T12:40:37;9.77;;;5.18;;
31774;SDS011;66189;49.000;11.640;2023-04-07T12:44:38;9.57;;;6.93;;
31774;SDS011;66189;49.000;11.640;2023-04-07T12:46:38;9.20;;;5.75;;
31774;SDS011;66189;49.000;11.640;2023-04-07T12:48:39;9.15;;;6.13;;
31774;SDS011;66189;49.000;11.640;2023-04-07T12:52:40;7.80;;;4.73;;
31774;SDS011;66189;49.000;11.640;2023-04-07T12:54:41;7.03;;;5.68;;
31774;SDS011;66189;49.000;11.640;2023-04-07T12:56:43;7.70;;;5.20;;
31774;SDS011;66189;49.000;11.640;2023-04-07T12:58:43;8.88;;;6.03;;
31774;SDS011;66189;49.000;11.640;2023-04-07T13:00:44;8.68;;;6.35;;
31774;SDS011;66189;49.000;11.640;2023-04-07T13:02:46;8.50;;;6.45;;
31774;SDS011;66189;49.000;11.640;2023-04-07T13:04:47;8.75;;;5.32;;
31774;SDS011;66189;49.000;11.640;2023-04-07T13:08:47;9.23;;;5.47;;
31774;SDS011;66189;49.000;11.640;2023-04-07T13:12:48;7.83;;;5.40;;
31774;SDS011;66189;49.000;11.640;2023-04-07T13:16:49;5.97;;;4.90;;
31774;SDS011;66189;49.000;11.640;2023-04-07T13:20:50;10.27;;;5.70;;
31774;SDS011;66189;49.000;11.640;2023-04-07T13:22:50;6.32;;;4.95;;
31774;SDS011;66189;49.000;11.640;2023-04-07T13:24:50;12.63;;;6.43;;